Seneca, Kansas
Current Conditions -  °F | °C
As of 7:15 PM on Friday 24 Oct 2014 (Local Time) from KMYZ Reporting Station
Clear Clear  
Wind Chill: 70°   Ceiling: Unl
Heat Index: 70°   Visibility: 10mi
Dew Point: 63°   Wind: 3mph
Humidity: 78%   Direction: 220°SW
Pressure: 29.94"   Gusts: NA
Location:  39.83°N, 96.06°W
Report Text: KMYZ 250015Z AUTO 22003KT 10SM CLR 21/17 A2994 RMK AO2
Loading
Personal Weather Stations






























Interactive Weather Map
Tropical Storm Tracking
New forecast layout! Learn more

10-Day Weather Forecast

Advertisements
Track Severe Weather on mobile